createdAt,value
2019-03-04T00:02:21.697Z,2.10
2019-03-04T00:05:02.576Z,2.07
2019-03-04T00:07:31.048Z,2.40
2019-03-04T00:10:18.896Z,1.90
2019-03-04T00:13:06.709Z,2.47
2019-03-04T00:15:47.827Z,2.30
2019-03-04T00:18:16.631Z,2.50
2019-03-04T00:21:04.584Z,2.30
2019-03-04T00:23:45.808Z,2.17
2019-03-04T00:26:26.622Z,2.73
2019-03-04T00:29:07.324Z,2.27
2019-03-04T00:31:48.409Z,2.33
2019-03-04T00:34:29.187Z,2.20
2019-03-04T00:37:09.694Z,1.90
2019-03-04T00:39:50.264Z,2.07
2019-03-04T00:42:18.800Z,2.40
2019-03-04T00:45:27.354Z,1.80
2019-03-04T00:48:14.825Z,2.20
2019-03-04T00:50:55.165Z,2.20
2019-03-04T00:53:35.978Z,2.20
2019-03-04T00:56:16.680Z,2.07
2019-03-04T00:58:57.149Z,2.03
2019-03-04T01:01:37.957Z,2.23
2019-03-04T01:04:18.687Z,1.60
2019-03-04T01:06:59.325Z,1.60
2019-03-04T01:09:27.807Z,2.27
2019-03-04T01:12:08.869Z,1.90
2019-03-04T01:14:49.728Z,1.90
2019-03-04T01:17:30.156Z,2.10
2019-03-04T01:20:10.795Z,1.60
2019-03-04T01:22:51.664Z,1.93
2019-03-04T01:25:32.510Z,1.90
2019-03-04T01:28:00.979Z,1.70
2019-03-04T01:30:48.869Z,2.03
2019-03-04T01:33:36.665Z,2.10
2019-03-04T01:36:16.945Z,2.17
2019-03-04T01:38:57.773Z,1.60
2019-03-04T01:41:38.658Z,2.10
2019-03-04T01:44:19.412Z,1.83
2019-03-04T01:47:00.229Z,1.80
2019-03-04T01:49:41.077Z,1.90
2019-03-04T01:52:21.892Z,1.73
2019-03-04T01:55:02.663Z,1.67
2019-03-04T01:57:43.547Z,1.87
2019-03-04T02:00:24.444Z,1.47
2019-03-04T02:03:05.119Z,1.73
2019-03-04T02:05:46.101Z,1.40
2019-03-04T02:08:26.869Z,1.70
2019-03-04T02:11:07.309Z,1.70
2019-03-04T02:13:47.704Z,1.47
2019-03-04T02:16:27.963Z,1.47
2019-03-04T02:19:08.804Z,1.70
2019-03-04T02:21:49.430Z,1.30
2019-03-04T02:24:29.744Z,1.40
2019-03-04T02:27:10.642Z,1.37
2019-03-04T02:29:51.538Z,1.40
2019-03-04T02:32:31.991Z,1.30
2019-03-04T02:35:13.044Z,1.20
2019-03-04T02:37:53.992Z,0.90
2019-03-04T02:40:34.686Z,1.50
2019-03-04T02:43:15.810Z,1.40
2019-03-04T02:45:56.634Z,1.27
2019-03-04T02:48:37.406Z,0.90
2019-03-04T02:51:17.969Z,0.93
2019-03-04T02:53:58.439Z,0.87
2019-03-04T02:56:39.521Z,1.10
2019-03-04T02:59:08.072Z,0.90
2019-03-04T03:01:56.196Z,0.90
2019-03-04T03:04:37.482Z,0.83
2019-03-04T03:07:18.331Z,1.07
2019-03-04T03:09:59.943Z,0.87
2019-03-04T03:12:41.018Z,0.80
2019-03-04T03:15:22.266Z,1.00
2019-03-04T03:17:51.317Z,1.03
2019-03-04T03:20:39.453Z,0.77
2019-03-04T03:23:20.483Z,0.87
2019-03-04T03:26:01.065Z,1.00
2019-03-04T03:28:42.034Z,0.80
2019-03-04T03:31:23.059Z,0.87
2019-03-04T03:34:03.764Z,1.20
2019-03-04T03:36:44.658Z,1.00
2019-03-04T03:39:25.394Z,1.10
2019-03-04T03:42:06.542Z,1.03
2019-03-04T03:44:35.018Z,1.13
2019-03-04T03:47:22.820Z,1.00
2019-03-04T03:50:04.030Z,0.90
2019-03-04T03:52:44.507Z,1.10
2019-03-04T03:55:53.046Z,1.17
2019-03-04T03:58:40.927Z,1.10
2019-03-04T04:01:21.582Z,1.30
2019-03-04T04:04:02.357Z,1.10
2019-03-04T04:06:42.992Z,1.10
2019-03-04T04:09:23.891Z,1.13
2019-03-04T04:11:52.433Z,1.20
2019-03-04T04:14:21.044Z,1.47
2019-03-04T04:17:08.868Z,1.20
2019-03-04T04:19:56.728Z,1.20
2019-03-04T04:22:37.861Z,1.10
2019-03-04T04:25:18.813Z,1.87
2019-03-04T04:27:59.814Z,1.40
2019-03-04T04:30:40.686Z,1.90
2019-03-04T04:33:21.633Z,1.57
2019-03-04T04:36:02.499Z,1.30
2019-03-04T04:38:43.662Z,1.47
2019-03-04T04:41:24.099Z,1.23
2019-03-04T04:44:04.645Z,1.43
2019-03-04T04:46:45.387Z,1.60
2019-03-04T04:49:26.278Z,1.33
2019-03-04T04:52:07.164Z,1.43
2019-03-04T04:54:35.817Z,1.60
2019-03-04T04:57:23.657Z,1.20
2019-03-04T04:59:52.134Z,1.57
2019-03-04T05:02:40.077Z,2.07
2019-03-04T05:05:21.162Z,1.40
2019-03-04T05:08:01.613Z,1.70
2019-03-04T05:10:42.462Z,1.60
2019-03-04T05:13:23.369Z,1.20
2019-03-04T05:16:04.405Z,1.57
2019-03-04T05:18:45.177Z,1.47
2019-03-04T05:21:26.220Z,1.37
2019-03-04T05:23:54.720Z,1.47
2019-03-04T05:26:42.586Z,1.17
2019-03-04T05:29:23.744Z,1.70
2019-03-04T05:32:04.520Z,1.30
2019-03-04T05:34:44.999Z,1.03
2019-03-04T05:37:25.896Z,1.23
2019-03-04T05:39:54.451Z,1.23
2019-03-04T05:42:42.376Z,1.00
2019-03-04T05:45:22.689Z,1.20
2019-03-04T05:48:03.244Z,1.20
2019-03-04T05:50:44.197Z,1.23
2019-03-04T05:53:12.679Z,1.13
2019-03-04T05:56:00.506Z,0.80
2019-03-04T05:58:28.960Z,0.77
2019-03-04T06:01:37.505Z,1.47
2019-03-04T06:04:17.800Z,1.60
2019-03-04T06:07:00.485Z,1.80
2019-03-04T06:09:41.322Z,1.40
2019-03-04T06:12:09.807Z,1.60
2019-03-04T06:14:57.600Z,1.47
2019-03-04T06:17:45.401Z,1.10
2019-03-04T06:20:26.439Z,1.13
2019-03-04T06:23:07.164Z,0.90
2019-03-04T06:25:35.627Z,1.10
2019-03-04T06:28:23.416Z,0.93
2019-03-04T06:31:03.747Z,1.10
2019-03-04T06:33:44.167Z,1.20
2019-03-04T06:36:24.886Z,1.03
2019-03-04T06:39:05.646Z,1.17
2019-03-04T06:41:46.389Z,1.27
2019-03-04T06:44:27.260Z,1.47
2019-03-04T06:47:08.179Z,1.10
2019-03-04T06:49:47.014Z,1.03
2019-03-04T06:52:27.442Z,1.23
2019-03-04T06:58:18.891Z,1.53
2019-03-04T07:06:56.483Z,1.03
2019-03-04T07:09:39.611Z,1.53
2019-03-04T07:12:22.291Z,1.27
2019-03-04T07:15:02.759Z,1.03
2019-03-04T07:17:43.992Z,1.30
2019-03-04T07:20:24.441Z,1.77
2019-03-04T07:23:05.293Z,1.47
2019-03-04T07:25:45.796Z,1.60
2019-03-04T07:28:26.668Z,1.00
2019-03-04T07:31:07.182Z,1.23
2019-03-04T07:33:35.623Z,1.47
2019-03-04T07:36:44.148Z,1.40
2019-03-04T07:39:31.975Z,1.30
2019-03-04T07:42:13.066Z,1.33
2019-03-04T07:44:41.598Z,1.53
2019-03-04T07:47:29.391Z,1.43
2019-03-04T07:50:10.058Z,1.40
2019-03-04T07:52:50.564Z,1.77
2019-03-04T07:55:31.352Z,2.47
2019-03-04T07:58:12.239Z,1.30
2019-03-04T08:00:53.298Z,1.40
2019-03-04T08:03:33.830Z,1.43
2019-03-04T08:06:14.991Z,1.30
2019-03-04T08:08:55.541Z,1.33
2019-03-04T08:11:36.341Z,1.63
2019-03-04T08:14:17.297Z,1.63
2019-03-04T08:16:58.237Z,1.87
2019-03-04T08:19:38.764Z,2.10
2019-03-04T08:22:19.645Z,1.77
2019-03-04T08:25:00.319Z,2.07
2019-03-04T08:27:40.970Z,1.90
2019-03-04T08:33:06.616Z,1.73
2019-03-04T08:35:54.409Z,2.37
2019-03-04T08:38:35.557Z,2.07
2019-03-04T08:41:16.316Z,1.97
2019-03-04T08:43:57.273Z,2.40
2019-03-04T08:46:38.153Z,2.37
2019-03-04T08:49:19.050Z,2.50
2019-03-04T08:51:59.885Z,2.50
2019-03-04T08:54:40.364Z,1.37
2019-03-04T08:57:21.269Z,0.90
2019-03-04T08:59:49.735Z,0.80
2019-03-04T09:02:37.628Z,0.80
2019-03-04T09:05:25.435Z,0.60
2019-03-04T09:08:07.368Z,0.63
2019-03-04T09:10:47.962Z,0.80
2019-03-04T09:13:29.760Z,0.70
2019-03-04T09:16:10.641Z,0.70
2019-03-04T09:18:51.361Z,0.50
2019-03-04T09:21:31.990Z,0.80
2019-03-04T09:24:12.619Z,0.50
2019-03-04T09:26:53.087Z,0.50
2019-03-04T09:29:33.761Z,0.90
2019-03-04T09:32:14.601Z,0.50
2019-03-04T09:34:55.514Z,0.40
2019-03-04T09:37:36.343Z,0.30
2019-03-04T09:40:44.941Z,0.30
2019-03-04T09:43:32.799Z,0.30
2019-03-04T09:46:13.579Z,0.23
2019-03-04T09:48:53.975Z,0.40
2019-03-04T09:51:34.651Z,0.60
2019-03-04T09:54:15.143Z,0.20
2019-03-04T09:56:55.681Z,0.40
2019-03-04T09:59:24.278Z,0.30
2019-03-04T10:02:12.149Z,0.40
2019-03-04T10:05:19.303Z,0.40
2019-03-04T10:11:14.382Z,0.40
2019-03-04T10:13:55.078Z,0.43
2019-03-04T10:16:35.690Z,0.20
2019-03-04T10:19:16.657Z,0.43
2019-03-04T10:31:27.396Z,0.70
2019-03-04T10:34:08.244Z,0.80
2019-03-04T10:36:49.305Z,0.90
2019-03-04T10:39:30.055Z,0.97
2019-03-04T10:42:11.297Z,0.93
2019-03-04T10:44:51.794Z,1.00
2019-03-04T10:47:32.759Z,0.97
2019-03-04T10:50:13.748Z,0.67
2019-03-04T10:52:54.753Z,0.70
2019-03-04T11:01:38.418Z,1.17
2019-03-04T11:04:19.097Z,1.37
2019-03-04T11:06:59.873Z,1.53
2019-03-04T11:09:40.590Z,1.10
2019-03-04T11:12:21.583Z,1.40
2019-03-04T11:15:02.262Z,1.70
2019-03-04T11:17:43.061Z,1.77
2019-03-04T11:20:24.206Z,1.80
2019-03-04T11:22:52.862Z,1.40
2019-03-04T11:25:40.855Z,2.00
2019-03-04T11:28:09.388Z,1.40
2019-03-04T11:30:57.869Z,1.60
2019-03-04T11:33:38.788Z,2.00
2019-03-04T11:36:19.388Z,1.73
2019-03-04T11:39:00.047Z,2.00
2019-03-04T11:41:40.860Z,1.70
2019-03-04T11:44:21.883Z,1.33
2019-03-04T11:47:02.441Z,1.90
2019-03-04T11:49:43.309Z,1.93
2019-03-04T11:52:24.154Z,2.13
2019-03-04T11:55:04.817Z,3.10
2019-03-04T11:57:45.659Z,2.67
2019-03-04T12:00:27.852Z,2.47
2019-03-04T12:03:08.685Z,2.60
2019-03-04T12:05:49.656Z,2.33
2019-03-04T12:08:30.525Z,2.20
2019-03-04T12:11:11.021Z,2.50
2019-03-04T12:13:51.586Z,2.30
2019-03-04T12:16:32.095Z,1.83
2019-03-04T12:19:12.895Z,2.40
2019-03-04T12:21:53.570Z,2.60
2019-03-04T12:24:34.433Z,1.87
2019-03-04T12:27:15.404Z,1.90
2019-03-04T12:29:56.012Z,2.00
2019-03-04T12:32:36.712Z,1.80
2019-03-04T12:35:17.717Z,2.60
2019-03-04T12:37:58.374Z,2.33
2019-03-04T12:40:39.050Z,2.17
2019-03-04T12:43:19.567Z,2.77
2019-03-04T12:46:00.500Z,2.10
2019-03-04T12:48:41.178Z,1.80
2019-03-04T12:51:09.712Z,2.30
2019-03-04T12:53:57.523Z,2.10
2019-03-04T12:56:37.811Z,2.63
2019-03-04T12:59:20.488Z,2.53
2019-03-04T13:02:01.654Z,1.90
2019-03-04T13:04:42.443Z,2.17
2019-03-04T13:07:10.977Z,2.73
2019-03-04T13:09:58.842Z,2.67
2019-03-04T13:12:39.486Z,2.40
2019-03-04T13:21:30.536Z,3.30
2019-03-04T13:24:11.412Z,2.17
2019-03-04T13:26:52.270Z,2.30
2019-03-04T13:29:32.909Z,2.50
2019-03-04T13:32:13.611Z,2.53
2019-03-04T13:34:54.725Z,2.40
2019-03-04T13:37:37.876Z,1.80
2019-03-04T13:40:18.328Z,2.00
2019-03-04T13:42:59.254Z,1.57
2019-03-04T13:45:39.967Z,1.53
2019-03-04T13:48:20.727Z,2.00
2019-03-04T13:51:01.446Z,1.63
2019-03-04T13:53:42.182Z,2.40
2019-03-04T13:56:23.229Z,1.50
2019-03-04T13:59:03.914Z,1.70
2019-03-04T14:01:44.873Z,2.27
2019-03-04T14:04:25.532Z,2.00
2019-03-04T14:07:06.305Z,1.83
2019-03-04T14:09:47.068Z,2.07
2019-03-04T14:12:28.088Z,1.80
2019-03-04T14:15:08.977Z,1.63
2019-03-04T14:17:49.639Z,1.90
2019-03-04T14:20:30.652Z,1.90
2019-03-04T14:23:11.465Z,2.03
2019-03-04T14:25:52.075Z,1.83
2019-03-04T14:28:33.200Z,1.70
2019-03-04T14:34:22.294Z,1.70
2019-03-04T14:37:03.327Z,1.50
2019-03-04T14:39:44.611Z,1.50
2019-03-04T14:42:25.612Z,1.30
2019-03-04T14:45:06.522Z,1.73
2019-03-04T14:47:46.995Z,1.73
2019-03-04T14:50:28.499Z,1.60
2019-03-04T14:53:09.717Z,2.30
2019-03-04T14:55:50.607Z,2.00
2019-03-04T14:58:31.103Z,1.17
2019-03-04T15:01:11.920Z,1.70
2019-03-04T15:03:52.681Z,1.80
2019-03-04T15:06:33.268Z,1.50
2019-03-04T15:09:15.019Z,2.63
2019-03-04T15:11:56.163Z,2.50
2019-03-04T15:14:36.860Z,1.80
2019-03-04T15:17:17.540Z,2.37
2019-03-04T15:19:57.867Z,1.80
2019-03-04T15:22:34.569Z,1.17
2019-03-04T15:25:35.251Z,1.50
2019-03-04T15:28:15.568Z,1.93
2019-03-04T15:30:56.512Z,1.67
2019-03-04T15:33:37.256Z,1.90
2019-03-04T15:36:17.603Z,1.80
2019-03-04T15:38:58.597Z,1.70
2019-03-04T15:41:40.416Z,1.50
2019-03-04T15:44:20.891Z,2.20
2019-03-04T15:47:01.640Z,1.97
2019-03-04T15:49:42.299Z,1.80
2019-03-04T15:52:23.077Z,1.67
2019-03-04T15:55:03.547Z,1.80
2019-03-04T15:57:44.358Z,1.90
2019-03-04T16:00:25.480Z,1.50
2019-03-04T16:03:06.961Z,1.67
2019-03-04T16:05:47.548Z,1.90
2019-03-04T16:08:30.025Z,2.00
2019-03-04T16:11:10.936Z,1.67
2019-03-04T16:13:55.145Z,1.30
2019-03-04T16:16:34.348Z,1.60
2019-03-04T16:19:15.237Z,2.00
2019-03-04T16:21:55.943Z,1.83
2019-03-04T16:24:36.812Z,2.00
2019-03-04T16:27:17.512Z,1.60
2019-03-04T16:29:58.213Z,1.40
2019-03-04T16:32:38.719Z,1.60
2019-03-04T16:35:19.252Z,1.83
2019-03-04T16:38:00.093Z,1.57
2019-03-04T16:40:41.056Z,1.30
2019-03-04T16:43:21.526Z,1.33
2019-03-04T16:46:02.229Z,1.67
2019-03-04T16:48:42.672Z,1.57
2019-03-04T16:51:23.396Z,1.40
2019-03-04T16:54:04.079Z,1.43
2019-03-04T16:56:44.740Z,1.30
2019-03-04T16:59:25.539Z,1.47
2019-03-04T17:02:06.685Z,2.00
2019-03-04T17:04:47.482Z,1.33
2019-03-04T17:07:28.055Z,1.33
2019-03-04T17:10:08.907Z,1.40
2019-03-04T17:12:49.460Z,1.43
2019-03-04T17:15:30.195Z,1.30
2019-03-04T17:18:11.057Z,1.30
2019-03-04T17:20:51.816Z,1.60
2019-03-04T17:23:32.616Z,1.80
2019-03-04T17:26:13.563Z,1.70
2019-03-04T17:28:54.472Z,1.30
2019-03-04T17:31:35.489Z,2.17
2019-03-04T17:34:16.478Z,2.53
2019-03-04T17:36:57.463Z,1.60
2019-03-04T17:39:38.262Z,2.00
2019-03-04T17:42:18.845Z,1.73
2019-03-04T17:44:59.915Z,2.67
2019-03-04T17:47:40.568Z,3.43
2019-03-04T17:50:21.513Z,1.43
2019-03-04T17:53:02.385Z,2.07
2019-03-04T17:55:43.105Z,2.17
2019-03-04T17:58:24.135Z,2.13
2019-03-04T18:01:05.204Z,2.10
2019-03-04T18:03:45.964Z,2.00
2019-03-04T18:06:26.849Z,2.10
2019-03-04T18:09:07.377Z,1.70
2019-03-04T18:11:48.185Z,1.77
2019-03-04T18:14:29.177Z,2.73
2019-03-04T18:17:09.738Z,2.23
2019-03-04T18:19:38.197Z,1.60
2019-03-04T18:22:26.030Z,1.90
2019-03-04T18:25:33.238Z,2.30
2019-03-04T18:28:14.449Z,2.37
2019-03-04T18:30:55.028Z,2.17
2019-03-04T18:33:35.870Z,2.20
2019-03-04T18:36:16.705Z,2.03
2019-03-04T18:38:57.417Z,1.57
2019-03-04T18:41:38.501Z,1.50
2019-03-04T18:44:19.319Z,2.33
2019-03-04T18:47:00.178Z,2.53
2019-03-04T18:49:41.185Z,1.83
2019-03-04T18:52:21.909Z,1.77
2019-03-04T18:55:02.711Z,1.40
2019-03-04T18:57:43.762Z,1.77
2019-03-04T19:00:24.366Z,2.70
2019-03-04T19:03:05.096Z,2.07
2019-03-04T19:05:46.051Z,2.63
2019-03-04T19:08:27.745Z,2.20
2019-03-04T19:10:56.208Z,1.73
2019-03-04T19:13:44.055Z,2.10
2019-03-04T19:16:31.908Z,1.80
2019-03-04T19:19:13.165Z,1.97
2019-03-04T19:21:55.455Z,2.20
2019-03-04T19:24:35.844Z,2.17
2019-03-04T19:27:16.497Z,1.80
2019-03-04T19:29:57.070Z,2.03
2019-03-04T19:32:37.563Z,2.43
2019-03-04T19:35:18.333Z,2.27
2019-03-04T19:38:02.212Z,1.70
2019-03-04T19:40:43.201Z,2.03
2019-03-04T19:43:32.707Z,1.70
2019-03-04T19:46:06.692Z,2.10
2019-03-04T19:48:47.193Z,1.50
2019-03-04T19:51:28.134Z,1.50
2019-03-04T19:54:08.668Z,1.17
2019-03-04T19:56:49.561Z,1.53
2019-03-04T19:59:18.088Z,1.50
2019-03-04T20:02:05.979Z,1.20
2019-03-04T20:04:53.775Z,1.10
2019-03-04T20:10:41.111Z,1.10
2019-03-04T20:13:21.710Z,0.90
2019-03-04T20:16:02.520Z,1.27
2019-03-04T20:18:43.127Z,1.37
2019-03-04T20:21:23.963Z,1.30
2019-03-04T20:24:04.799Z,1.20
2019-03-04T20:26:45.606Z,1.10
2019-03-04T20:29:25.966Z,1.30
2019-03-04T20:32:06.637Z,1.27
2019-03-04T20:34:47.325Z,1.30
2019-03-04T20:37:28.033Z,1.50
2019-03-04T20:40:08.698Z,2.17
2019-03-04T20:42:51.053Z,1.90
2019-03-04T20:45:31.862Z,2.70
2019-03-04T20:48:12.551Z,2.60
2019-03-04T20:50:53.399Z,2.67
2019-03-04T20:53:21.856Z,2.97
2019-03-04T20:56:09.683Z,3.27
2019-03-04T20:58:57.486Z,4.07
2019-03-04T21:01:37.952Z,4.23
2019-03-04T21:04:18.780Z,3.63
2019-03-04T21:06:59.342Z,4.10
2019-03-04T21:12:36.535Z,4.17
2019-03-04T21:15:17.260Z,3.80
2019-03-04T21:17:57.827Z,4.03
2019-03-04T21:20:38.936Z,3.13
2019-03-04T21:23:19.553Z,4.17
2019-03-04T21:26:00.469Z,3.73
2019-03-04T21:28:41.226Z,3.70
2019-03-04T21:31:21.995Z,3.60
2019-03-04T21:37:25.311Z,2.87
2019-03-04T21:40:07.260Z,2.70
2019-03-04T21:42:48.118Z,3.00
2019-03-04T21:45:30.390Z,2.53
2019-03-04T21:48:11.358Z,2.47
2019-03-04T21:50:52.299Z,2.13
2019-03-04T21:54:00.846Z,2.43
2019-03-04T21:59:55.948Z,3.00
2019-03-04T22:02:36.675Z,2.27
2019-03-04T22:05:17.648Z,1.97
2019-03-04T22:07:58.613Z,2.77
2019-03-04T22:10:39.203Z,2.23
2019-03-04T22:13:19.901Z,2.70
2019-03-04T22:16:00.817Z,2.63
2019-03-04T22:18:41.198Z,2.20
2019-03-04T22:21:21.706Z,2.33
2019-03-04T22:24:02.324Z,2.53
2019-03-04T22:26:42.962Z,2.37
2019-03-04T22:29:23.997Z,2.30
2019-03-04T22:31:52.464Z,2.30
2019-03-04T22:34:40.285Z,3.43
2019-03-04T22:37:28.222Z,2.50
2019-03-04T22:40:15.725Z,2.63
2019-03-04T22:45:55.123Z,2.73
2019-03-04T22:48:35.957Z,2.77
2019-03-04T22:51:16.582Z,6.03
2019-03-04T22:53:57.198Z,2.97
2019-03-04T22:56:37.970Z,3.23
2019-03-04T22:59:19.142Z,2.30
2019-03-04T23:02:27.698Z,2.60
2019-03-04T23:05:15.504Z,2.53
2019-03-04T23:07:56.595Z,2.07
2019-03-04T23:10:37.454Z,3.17
2019-03-04T23:13:26.810Z,2.40
2019-03-04T23:19:03.267Z,2.47
2019-03-04T23:21:44.174Z,2.03
2019-03-04T23:24:24.699Z,2.50
2019-03-04T23:27:05.336Z,2.37
2019-03-04T23:29:33.806Z,2.70
2019-03-04T23:32:21.614Z,4.57
2019-03-04T23:35:02.422Z,3.07
2019-03-04T23:37:31.054Z,3.00
2019-03-04T23:40:19.043Z,4.13
2019-03-04T23:43:06.991Z,3.70
2019-03-04T23:45:48.265Z,3.90
2019-03-04T23:48:28.991Z,3.27
2019-03-04T23:51:09.910Z,2.87
2019-03-04T23:53:50.713Z,2.63
2019-03-04T23:56:19.556Z,3.87
2019-03-04T23:59:07.431Z,2.70
